createdAt,value
2022-12-20T00:00:02.999Z,8.24
2022-12-20T00:02:34.559Z,8.12
2022-12-20T00:05:05.512Z,8.47
2022-12-20T00:07:35.889Z,8.05
2022-12-20T00:10:10.771Z,8.13
2022-12-20T00:12:48.837Z,8.15
2022-12-20T00:15:19.487Z,8.46
2022-12-20T00:17:48.939Z,8.15
2022-12-20T00:20:18.874Z,8.47
2022-12-20T00:22:48.545Z,8.32
2022-12-20T00:25:26.185Z,8.46
2022-12-20T00:28:00.846Z,8.45
2022-12-20T00:30:34.369Z,8.06
2022-12-20T00:33:06.051Z,8.44
2022-12-20T00:35:38.136Z,8.51
2022-12-20T00:38:08.509Z,8.31
2022-12-20T00:40:41.302Z,8.29
2022-12-20T00:43:15.612Z,8.04
2022-12-20T00:45:52.723Z,8.19
2022-12-20T00:48:22.089Z,8.01
2022-12-20T00:50:51.438Z,8.21
2022-12-20T00:53:26.335Z,8.13
2022-12-20T00:56:03.442Z,8.24
2022-12-20T00:58:41.552Z,8.12
2022-12-20T01:01:38.354Z,8.05
2022-12-20T01:04:10.217Z,7.99
2022-12-20T01:06:42.006Z,8.02
2022-12-20T01:09:13.020Z,8.06
2022-12-20T01:11:43.519Z,7.73
2022-12-20T01:14:17.068Z,8.20
2022-12-20T01:16:50.129Z,8.31
2022-12-20T01:19:23.174Z,8.19
2022-12-20T01:21:55.060Z,8.31
2022-12-20T01:24:30.662Z,8.22
2022-12-20T01:27:04.899Z,8.43
2022-12-20T01:29:35.137Z,8.07
2022-12-20T01:32:18.640Z,8.18
2022-12-20T01:34:51.715Z,8.33
2022-12-20T01:37:23.561Z,8.07
2022-12-20T01:39:55.632Z,8.49
2022-12-20T01:43:22.881Z,8.23
2022-12-20T01:46:01.930Z,8.01
2022-12-20T01:48:33.269Z,8.13
2022-12-20T01:51:10.328Z,8.20
2022-12-20T01:53:41.907Z,8.32
2022-12-20T01:56:20.384Z,8.37
2022-12-20T01:59:00.878Z,8.55
2022-12-20T02:01:50.261Z,8.43
2022-12-20T02:04:43.846Z,8.37
2022-12-20T02:08:32.459Z,8.29
2022-12-20T02:11:23.155Z,8.65
2022-12-20T02:19:16.945Z,8.52
2022-12-20T02:22:22.375Z,8.72
2022-12-20T02:26:06.272Z,8.63
2022-12-20T02:29:38.844Z,8.51
2022-12-20T02:33:30.850Z,8.63
2022-12-20T02:36:23.281Z,8.87
2022-12-20T02:39:18.824Z,8.66
2022-12-20T02:45:34.947Z,8.71
2022-12-20T02:49:03.730Z,8.49
2022-12-20T02:51:41.957Z,8.74
2022-12-20T02:54:52.795Z,8.52
2022-12-20T02:57:53.312Z,8.53
2022-12-20T03:00:45.327Z,8.60
2022-12-20T03:03:25.124Z,8.47
2022-12-20T03:06:08.693Z,8.71
2022-12-20T03:09:41.111Z,8.80
2022-12-20T03:12:21.718Z,8.54
2022-12-20T03:14:58.621Z,8.74
2022-12-20T03:17:31.196Z,8.68
2022-12-20T03:20:02.234Z,8.76
2022-12-20T03:22:35.796Z,8.63
2022-12-20T03:25:11.944Z,8.72
2022-12-20T03:28:05.900Z,8.60
2022-12-20T03:30:35.257Z,8.72
2022-12-20T03:33:07.193Z,8.78
2022-12-20T03:35:38.194Z,8.72
2022-12-20T03:38:08.489Z,8.59
2022-12-20T03:40:38.344Z,8.58
2022-12-20T03:43:08.515Z,8.90
2022-12-20T03:45:38.067Z,8.85
2022-12-20T03:48:07.203Z,8.66
2022-12-20T03:50:38.428Z,8.92
2022-12-20T03:53:13.257Z,8.72
2022-12-20T03:56:21.371Z,8.74
2022-12-20T03:59:04.302Z,8.79
2022-12-20T04:05:45.201Z,8.42
2022-12-20T04:08:14.694Z,8.69
2022-12-20T04:11:33.406Z,8.87
2022-12-20T04:14:11.295Z,8.64
2022-12-20T04:17:14.924Z,8.43
2022-12-20T04:19:46.360Z,8.61
2022-12-20T04:22:59.492Z,8.74
2022-12-20T04:25:34.517Z,8.90
2022-12-20T04:28:04.890Z,8.99
2022-12-20T04:30:35.520Z,8.73
2022-12-20T04:33:11.287Z,8.75
2022-12-20T04:35:42.963Z,8.76
2022-12-20T04:38:18.371Z,8.91
2022-12-20T04:40:58.918Z,8.87
2022-12-20T04:43:37.701Z,8.89
2022-12-20T04:46:12.186Z,8.67
2022-12-20T04:48:58.864Z,8.81
2022-12-20T04:51:32.984Z,8.74
2022-12-20T04:54:18.473Z,8.80
2022-12-20T05:04:06.020Z,8.68
2022-12-20T05:06:39.242Z,8.73
2022-12-20T05:09:20.643Z,8.71
2022-12-20T05:11:52.173Z,8.73
2022-12-20T05:15:42.578Z,8.80
2022-12-20T05:18:50.725Z,8.96
2022-12-20T05:22:06.753Z,8.54
2022-12-20T05:25:04.632Z,8.61
2022-12-20T05:28:53.700Z,8.64
2022-12-20T05:31:33.256Z,8.54
2022-12-20T05:34:03.870Z,8.84
2022-12-20T05:41:37.574Z,8.81
2022-12-20T05:44:16.113Z,8.60
2022-12-20T05:47:53.402Z,8.87
2022-12-20T05:54:38.944Z,8.72
2022-12-20T05:57:19.764Z,8.73
2022-12-20T06:00:06.936Z,8.50
2022-12-20T06:02:46.952Z,8.91
2022-12-20T06:05:27.362Z,8.95
2022-12-20T06:08:46.210Z,8.89
2022-12-20T06:11:46.196Z,8.92
2022-12-20T06:14:18.041Z,8.70
2022-12-20T06:16:52.920Z,8.92
2022-12-20T06:19:31.763Z,8.90
2022-12-20T06:22:10.609Z,8.92
2022-12-20T06:24:48.467Z,8.73
2022-12-20T06:27:24.666Z,9.04
2022-12-20T06:31:11.039Z,8.91
2022-12-20T06:34:02.048Z,8.84
2022-12-20T06:45:45.049Z,9.05
2022-12-20T06:49:01.924Z,8.70
2022-12-20T06:52:09.638Z,8.91
2022-12-20T06:55:36.423Z,8.75
2022-12-20T06:58:46.004Z,9.06
2022-12-20T07:01:23.144Z,8.62
2022-12-20T07:10:10.759Z,8.85
2022-12-20T07:13:46.650Z,8.92
2022-12-20T07:23:19.702Z,8.79
2022-12-20T07:26:13.371Z,8.79
2022-12-20T07:36:17.956Z,8.69
2022-12-20T07:49:29.046Z,8.51
2022-12-20T07:52:34.701Z,8.99
2022-12-20T08:00:08.739Z,8.73
2022-12-20T08:05:02.988Z,8.85
2022-12-20T08:19:14.285Z,8.57
2022-12-20T08:34:43.346Z,8.43
2022-12-20T08:37:50.288Z,8.37
2022-12-20T08:42:13.918Z,8.62
2022-12-20T08:45:23.641Z,8.50
2022-12-20T08:48:02.217Z,8.56
2022-12-20T08:50:35.913Z,8.30
2022-12-20T08:53:07.394Z,8.32
2022-12-20T08:55:43.762Z,8.72
2022-12-20T08:58:16.739Z,8.20
2022-12-20T09:00:53.422Z,8.32
2022-12-20T09:03:25.011Z,8.46
2022-12-20T09:06:03.691Z,8.73
2022-12-20T09:08:35.119Z,8.90
2022-12-20T09:11:07.656Z,8.91
2022-12-20T09:13:43.716Z,8.75
2022-12-20T09:16:21.290Z,9.22
2022-12-20T09:19:04.628Z,8.98
2022-12-20T09:21:38.886Z,8.83
2022-12-20T09:24:11.695Z,9.09
2022-12-20T09:26:50.007Z,8.87
2022-12-20T09:29:28.342Z,8.87
2022-12-20T09:32:03.055Z,8.89
2022-12-20T09:34:35.423Z,9.20
2022-12-20T09:37:11.222Z,8.76
2022-12-20T09:39:46.267Z,9.27
2022-12-20T09:42:17.339Z,9.12
2022-12-20T09:44:47.432Z,9.03
2022-12-20T09:47:27.661Z,9.06
2022-12-20T09:50:00.607Z,8.89
2022-12-20T09:52:48.548Z,9.07
2022-12-20T09:56:05.267Z,9.00
2022-12-20T09:58:58.581Z,9.17
2022-12-20T10:01:38.662Z,8.87
2022-12-20T10:04:25.906Z,9.26
2022-12-20T10:07:23.694Z,9.04
2022-12-20T10:10:35.044Z,8.87
2022-12-20T10:19:22.726Z,8.93
2022-12-20T10:22:01.775Z,8.84
2022-12-20T10:24:36.849Z,9.07
2022-12-20T10:27:25.428Z,8.81
2022-12-20T10:30:24.453Z,9.21
2022-12-20T10:38:14.347Z,9.09
2022-12-20T10:44:05.916Z,9.04
2022-12-20T10:46:47.823Z,9.24
2022-12-20T10:49:34.918Z,9.26
2022-12-20T10:52:10.763Z,9.13
2022-12-20T10:54:44.636Z,9.10
2022-12-20T10:57:21.974Z,9.07
2022-12-20T10:59:57.995Z,9.25
2022-12-20T11:02:41.227Z,9.07
2022-12-20T11:05:11.790Z,9.04
2022-12-20T11:10:50.121Z,9.09
2022-12-20T11:13:27.338Z,9.06
2022-12-20T11:16:02.337Z,8.96
2022-12-20T11:18:54.162Z,9.02
2022-12-20T11:21:42.436Z,8.96
2022-12-20T11:24:43.057Z,9.03
2022-12-20T11:28:02.495Z,9.07
2022-12-20T11:31:13.191Z,9.04
2022-12-20T11:34:04.760Z,8.93
2022-12-20T11:37:02.515Z,9.21
2022-12-20T11:39:52.781Z,9.10
2022-12-20T11:42:59.109Z,9.02
2022-12-20T11:45:59.680Z,9.11
2022-12-20T11:49:04.882Z,9.14
2022-12-20T11:51:59.898Z,9.09
2022-12-20T11:55:07.807Z,9.16
2022-12-20T11:58:19.098Z,9.07
2022-12-20T12:01:02.736Z,9.08
2022-12-20T12:03:41.068Z,9.03
2022-12-20T12:06:21.867Z,9.20
2022-12-20T12:09:06.618Z,9.19
2022-12-20T12:12:07.852Z,9.17
2022-12-20T12:15:11.213Z,9.16
2022-12-20T12:18:15.688Z,9.17
2022-12-20T12:21:09.307Z,9.18
2022-12-20T12:23:48.760Z,9.16
2022-12-20T12:26:27.605Z,8.99
2022-12-20T12:29:02.602Z,9.29
2022-12-20T12:31:53.122Z,9.35
2022-12-20T12:35:04.821Z,9.47
2022-12-20T12:37:53.051Z,9.41
2022-12-20T12:40:31.256Z,9.33
2022-12-20T12:43:47.163Z,9.21
2022-12-20T12:46:29.445Z,9.44
2022-12-20T12:49:07.849Z,9.47
2022-12-20T12:51:43.702Z,9.49
2022-12-20T12:54:30.454Z,9.50
2022-12-20T12:57:13.231Z,9.31
2022-12-20T12:59:52.865Z,9.67
2022-12-20T13:02:30.934Z,9.52
2022-12-20T13:05:14.666Z,9.61
2022-12-20T13:07:49.069Z,9.63
2022-12-20T13:10:27.480Z,9.54
2022-12-20T13:13:02.946Z,9.65
2022-12-20T13:15:33.879Z,9.64
2022-12-20T13:18:23.565Z,9.74
2022-12-20T13:21:20.277Z,9.74
2022-12-20T13:24:11.012Z,9.23
2022-12-20T13:26:53.782Z,9.58
2022-12-20T13:29:37.998Z,9.63
2022-12-20T13:32:46.606Z,9.74
2022-12-20T13:36:02.286Z,9.59
2022-12-20T13:38:41.150Z,9.23
2022-12-20T13:41:34.418Z,9.43
2022-12-20T13:44:35.009Z,9.38
2022-12-20T13:47:28.073Z,9.46
2022-12-20T13:50:02.957Z,9.48
2022-12-20T13:52:35.040Z,9.28
2022-12-20T13:55:19.391Z,9.33
2022-12-20T13:58:04.753Z,9.19
2022-12-20T14:01:15.532Z,9.29
2022-12-20T14:03:51.354Z,9.19
2022-12-20T14:06:34.441Z,9.32
2022-12-20T14:09:18.077Z,9.44
2022-12-20T14:12:37.073Z,9.41
2022-12-20T14:15:23.483Z,9.22
2022-12-20T14:17:58.041Z,9.18
2022-12-20T14:20:51.844Z,8.98
2022-12-20T14:25:46.029Z,9.04
2022-12-20T14:30:05.609Z,8.68
2022-12-20T14:32:57.215Z,9.09
2022-12-20T14:56:18.975Z,8.47
2022-12-20T14:59:07.107Z,8.84
2022-12-20T15:07:43.012Z,8.64
2022-12-20T15:10:15.567Z,8.44
2022-12-20T15:13:50.883Z,8.60
2022-12-20T15:16:22.714Z,8.36
2022-12-20T15:24:09.504Z,8.20
2022-12-20T15:26:48.356Z,8.23
2022-12-20T15:29:26.934Z,8.45
2022-12-20T15:32:18.831Z,8.24
2022-12-20T15:34:52.909Z,8.22
2022-12-20T15:37:25.351Z,8.29
2022-12-20T15:41:07.567Z,7.92
2022-12-20T15:43:41.251Z,7.87
2022-12-20T15:46:11.458Z,8.20
2022-12-20T15:48:49.700Z,8.11
2022-12-20T15:51:35.978Z,7.69
2022-12-20T15:54:25.636Z,7.72
2022-12-20T15:57:04.892Z,8.11
2022-12-20T16:00:09.050Z,7.60
2022-12-20T16:02:42.800Z,7.85
2022-12-20T16:07:12.877Z,7.69
2022-12-20T16:59:18.966Z,6.49
2022-12-20T17:03:47.559Z,6.38
2022-12-20T17:16:03.471Z,6.43
2022-12-20T17:57:55.312Z,6.44
2022-12-20T18:01:06.900Z,6.82
2022-12-20T18:04:04.163Z,7.32
2022-12-20T18:06:51.425Z,6.87
2022-12-20T18:13:50.662Z,6.63
2022-12-20T18:16:41.729Z,7.59
2022-12-20T18:19:29.069Z,7.13
2022-12-20T18:22:14.637Z,7.35
2022-12-20T19:00:18.592Z,6.46
2022-12-20T19:03:42.733Z,7.02
2022-12-20T19:06:34.098Z,6.92
2022-12-20T19:09:22.715Z,7.56
2022-12-20T19:12:24.372Z,6.68
2022-12-20T19:16:22.731Z,6.90
2022-12-20T19:19:01.025Z,7.19
2022-12-20T19:21:45.946Z,7.57
2022-12-20T19:24:52.240Z,7.10
2022-12-20T19:28:11.411Z,7.12
2022-12-20T20:04:40.098Z,6.79
2022-12-20T20:18:20.734Z,7.09
2022-12-20T20:21:51.983Z,7.14
2022-12-20T20:24:58.098Z,7.32
2022-12-20T20:27:43.809Z,7.52
2022-12-20T21:07:52.005Z,7.29
2022-12-20T21:14:15.009Z,7.50
2022-12-20T21:21:30.664Z,7.18
2022-12-20T21:24:15.423Z,7.47
2022-12-20T21:27:15.476Z,7.59
2022-12-20T21:29:55.378Z,7.66
2022-12-20T21:32:51.609Z,7.60
